createdAt,value
2022-08-17T00:02:26.108Z,96903.31
2022-08-17T00:04:54.712Z,96910.66
2022-08-17T00:07:23.210Z,96913.69
2022-08-17T00:09:52.646Z,96912.88
2022-08-17T00:12:43.513Z,96904.41
2022-08-17T00:15:11.026Z,96911.59
2022-08-17T00:17:39.637Z,96906.53
2022-08-17T00:20:08.746Z,96915.50
2022-08-17T00:22:36.937Z,96910.81
2022-08-17T00:25:08.433Z,96909.69
2022-08-17T00:27:36.994Z,96902.63
2022-08-17T00:30:05.818Z,96902.41
2022-08-17T00:33:15.194Z,96902.63
2022-08-17T00:35:27.839Z,96899.03
2022-08-17T00:37:55.832Z,96896.84
2022-08-17T00:40:25.259Z,96894.34
2022-08-17T00:42:53.813Z,96898.09
2022-08-17T00:45:23.185Z,96885.09
2022-08-17T00:47:51.205Z,96885.38
2022-08-17T00:50:19.755Z,96885.28
2022-08-17T00:52:52.529Z,96876.47
2022-08-17T00:55:20.566Z,96880.03
2022-08-17T00:57:54.753Z,96877.91
2022-08-17T01:00:26.927Z,96878.56
2022-08-17T01:02:56.405Z,96872.50
2022-08-17T01:05:25.868Z,96878.34
2022-08-17T01:07:53.883Z,96869.41
2022-08-17T01:11:00.678Z,96880.94
2022-08-17T01:13:13.627Z,96880.44
2022-08-17T01:15:46.068Z,96880.16
2022-08-17T01:18:14.508Z,96879.38
2022-08-17T01:20:48.135Z,96876.00
2022-08-17T01:23:20.525Z,96884.63
2022-08-17T01:25:49.382Z,96885.97
2022-08-17T01:28:53.449Z,96882.84
2022-08-17T01:31:06.469Z,96892.78
2022-08-17T01:33:34.737Z,96892.16
2022-08-17T01:36:03.649Z,96899.06
2022-08-17T01:38:33.110Z,96895.75
2022-08-17T01:41:02.636Z,96896.41
2022-08-17T01:43:32.144Z,96893.09
2022-08-17T01:46:03.624Z,96893.13
2022-08-17T01:48:32.819Z,96889.00
2022-08-17T01:51:01.123Z,96893.81
2022-08-17T01:53:33.238Z,96886.69
2022-08-17T01:56:02.836Z,96894.03
2022-08-17T01:58:30.706Z,96886.53
2022-08-17T02:01:01.067Z,96885.09
2022-08-17T02:03:29.655Z,96889.75
2022-08-17T02:05:57.813Z,96885.09
2022-08-17T02:08:39.300Z,96891.00
2022-08-17T02:11:17.053Z,96889.75
2022-08-17T02:13:45.043Z,96891.31
2022-08-17T02:16:13.514Z,96888.56
2022-08-17T02:18:41.866Z,96886.19
2022-08-17T02:21:10.156Z,96889.34
2022-08-17T02:23:40.584Z,96884.56
2022-08-17T02:26:08.512Z,96895.06
2022-08-17T02:28:53.683Z,96881.38
2022-08-17T02:31:22.521Z,96893.31
2022-08-17T02:33:56.866Z,96891.84
2022-08-17T02:36:33.242Z,96885.81
2022-08-17T02:39:01.965Z,96885.84
2022-08-17T02:41:29.803Z,96890.25
2022-08-17T02:43:59.233Z,96883.13
2022-08-17T02:46:27.164Z,96878.75
2022-08-17T02:48:55.044Z,96875.41
2022-08-17T02:51:23.491Z,96871.25
2022-08-17T02:53:51.405Z,96875.59
2022-08-17T02:56:19.308Z,96884.84
2022-08-17T02:58:47.630Z,96874.16
2022-08-17T03:01:17.075Z,96869.53
2022-08-17T03:03:45.283Z,96869.88
2022-08-17T03:06:13.420Z,96859.81
2022-08-17T03:08:41.419Z,96859.59
2022-08-17T03:11:09.293Z,96858.81
2022-08-17T03:13:37.337Z,96865.69
2022-08-17T03:16:05.757Z,96860.91
2022-08-17T03:18:35.092Z,96863.81
2022-08-17T03:21:04.429Z,96857.09
2022-08-17T03:23:32.898Z,96865.22
2022-08-17T03:26:01.214Z,96857.72
2022-08-17T03:28:30.711Z,96852.63
2022-08-17T03:30:58.593Z,96863.50
2022-08-17T03:33:26.444Z,96863.03
2022-08-17T03:35:55.752Z,96861.38
2022-08-17T03:38:23.662Z,96869.41
2022-08-17T03:40:56.942Z,96867.72
2022-08-17T03:43:28.850Z,96867.50
2022-08-17T03:46:27.845Z,96864.59
2022-08-17T03:49:19.936Z,96868.41
2022-08-17T03:52:06.951Z,96864.22
2022-08-17T03:54:48.928Z,96867.16
2022-08-17T03:57:16.928Z,96868.41
2022-08-17T03:59:45.245Z,96866.03
2022-08-17T04:02:15.352Z,96867.09
2022-08-17T04:04:43.547Z,96871.38
2022-08-17T04:07:12.876Z,96875.59
2022-08-17T04:09:40.805Z,96876.22
2022-08-17T04:12:08.947Z,96869.78
2022-08-17T04:14:52.149Z,96873.53
2022-08-17T04:17:22.233Z,96873.53
2022-08-17T04:19:50.468Z,96876.03
2022-08-17T04:22:30.009Z,96870.59
2022-08-17T04:25:02.063Z,96876.22
2022-08-17T04:27:29.959Z,96881.69
2022-08-17T04:29:58.572Z,96875.59
2022-08-17T04:33:05.221Z,96890.31
2022-08-17T04:35:18.326Z,96894.75
2022-08-17T04:37:48.048Z,96891.78
2022-08-17T04:40:33.440Z,96893.31
2022-08-17T04:43:02.854Z,96894.44
2022-08-17T04:45:32.181Z,96893.94
2022-08-17T04:48:00.646Z,96892.94
2022-08-17T04:50:29.004Z,96899.13
2022-08-17T04:52:58.630Z,96895.97
2022-08-17T04:55:26.802Z,96899.31
2022-08-17T04:57:54.887Z,96893.97
2022-08-17T05:00:25.723Z,96897.31
2022-08-17T05:02:55.595Z,96895.22
2022-08-17T05:05:25.171Z,96896.13
2022-08-17T05:07:56.356Z,96908.38
2022-08-17T05:10:26.005Z,96905.50
2022-08-17T05:12:59.247Z,96902.94
2022-08-17T05:15:27.410Z,96903.47
2022-08-17T05:17:55.363Z,96908.63
2022-08-17T05:20:23.610Z,96910.53
2022-08-17T05:22:51.956Z,96915.38
2022-08-17T05:25:24.967Z,96911.75
2022-08-17T05:27:56.679Z,96901.88
2022-08-17T05:30:26.753Z,96899.75
2022-08-17T05:32:57.105Z,96895.50
2022-08-17T05:35:26.570Z,96901.91
2022-08-17T05:37:55.211Z,96903.75
2022-08-17T05:40:26.511Z,96900.19
2022-08-17T05:43:09.328Z,96888.53
2022-08-17T05:45:54.715Z,96888.97
2022-08-17T05:48:36.747Z,96889.91
2022-08-17T05:51:21.922Z,96882.53
2022-08-17T05:53:55.201Z,96887.00
2022-08-17T05:56:29.856Z,96886.16
2022-08-17T05:59:06.143Z,96888.22
2022-08-17T06:01:36.700Z,96890.81
2022-08-17T06:04:12.432Z,96885.97
2022-08-17T06:06:41.983Z,96893.41
2022-08-17T06:09:35.557Z,96882.91
2022-08-17T06:12:09.953Z,96881.34
2022-08-17T06:14:52.417Z,96873.00
2022-08-17T06:17:21.975Z,96883.78
2022-08-17T06:19:52.644Z,96877.47
2022-08-17T06:22:21.828Z,96872.25
2022-08-17T06:24:53.394Z,96861.72
2022-08-17T06:27:25.055Z,96859.28
2022-08-17T06:29:58.789Z,96867.53
2022-08-17T06:32:26.780Z,96871.81
2022-08-17T06:34:55.323Z,96875.44
2022-08-17T06:37:44.172Z,96873.66
2022-08-17T06:40:23.229Z,96872.28
2022-08-17T06:43:05.488Z,96871.28
2022-08-17T06:45:38.776Z,96872.19
2022-08-17T06:48:10.915Z,96874.38
2022-08-17T06:50:40.791Z,96872.13
2022-08-17T06:53:13.235Z,96874.91
2022-08-17T06:55:45.294Z,96872.66
2022-08-17T06:58:16.165Z,96878.16
2022-08-17T07:00:47.332Z,96877.53
2022-08-17T07:03:19.108Z,96876.75
2022-08-17T07:05:48.664Z,96875.44
2022-08-17T07:08:19.572Z,96883.91
2022-08-17T07:10:48.321Z,96890.69
2022-08-17T07:13:32.457Z,96886.28
2022-08-17T07:16:17.259Z,96883.41
2022-08-17T07:18:45.349Z,96885.44
2022-08-17T07:21:26.235Z,96886.63
2022-08-17T07:24:03.668Z,96879.56
2022-08-17T07:26:31.597Z,96879.88
2022-08-17T07:29:01.014Z,96877.78
2022-08-17T07:31:31.612Z,96886.69
2022-08-17T07:34:01.972Z,96891.19
2022-08-17T07:36:33.932Z,96898.44
2022-08-17T07:39:03.380Z,96912.38
2022-08-17T07:41:57.452Z,96921.28
2022-08-17T07:44:24.351Z,96919.09
2022-08-17T07:47:11.653Z,96921.28
2022-08-17T07:49:41.238Z,96920.56
2022-08-17T07:52:24.131Z,96927.13
2022-08-17T07:54:59.697Z,96935.53
2022-08-17T07:57:35.542Z,96945.59
2022-08-17T08:00:19.636Z,96938.56
2022-08-17T08:03:03.462Z,96941.03
2022-08-17T08:05:49.727Z,96937.00
2022-08-17T08:08:36.666Z,96926.75
2022-08-17T08:11:07.464Z,96936.88
2022-08-17T08:13:35.814Z,96930.75
2022-08-17T08:16:22.697Z,96950.44
2022-08-17T08:18:56.870Z,96950.28
2022-08-17T08:21:33.226Z,96950.38
2022-08-17T08:24:06.952Z,96945.50
2022-08-17T08:26:37.469Z,96948.47
2022-08-17T08:29:09.875Z,96948.50
2022-08-17T08:31:48.077Z,96953.34
2022-08-17T08:34:58.735Z,96956.72
2022-08-17T08:37:22.741Z,96957.94
2022-08-17T08:39:58.915Z,96954.38
2022-08-17T08:42:32.417Z,96951.22
2022-08-17T08:45:05.495Z,96953.97
2022-08-17T08:47:44.591Z,96965.38
2022-08-17T08:50:37.221Z,96955.31
2022-08-17T08:53:28.800Z,96949.34
2022-08-17T08:56:03.013Z,96949.63
2022-08-17T08:58:41.821Z,96954.13
2022-08-17T09:01:16.648Z,96953.28
2022-08-17T09:04:24.068Z,96949.22
2022-08-17T09:07:01.058Z,96948.56
2022-08-17T09:09:37.151Z,96951.16
2022-08-17T09:12:07.814Z,96952.53
2022-08-17T09:14:45.452Z,96944.84
2022-08-17T09:17:16.507Z,96948.59
2022-08-17T09:19:48.493Z,96957.09
2022-08-17T09:22:25.245Z,96956.88
2022-08-17T09:24:57.367Z,96946.22
2022-08-17T09:27:28.368Z,96950.75
2022-08-17T09:29:58.853Z,96956.50
2022-08-17T09:32:33.952Z,96951.84
2022-08-17T09:35:05.172Z,96956.00
2022-08-17T09:37:39.268Z,96956.47
2022-08-17T09:40:10.919Z,96964.81
2022-08-17T09:42:43.189Z,96963.38
2022-08-17T09:45:24.676Z,96963.16
2022-08-17T09:47:57.727Z,96969.13
2022-08-17T09:51:03.747Z,96962.69
2022-08-17T09:53:16.899Z,96967.78
2022-08-17T09:56:00.031Z,96965.91
2022-08-17T09:58:33.093Z,96974.34
2022-08-17T10:01:04.314Z,96973.97
2022-08-17T10:03:41.657Z,96972.53
2022-08-17T10:06:13.317Z,96968.25
2022-08-17T10:08:45.471Z,96969.88
2022-08-17T10:11:20.095Z,96963.91
2022-08-17T10:13:52.896Z,96979.59
2022-08-17T10:16:26.007Z,96970.31
2022-08-17T10:19:03.741Z,96965.63
2022-08-17T10:21:49.511Z,96964.22
2022-08-17T10:25:21.197Z,96964.13
2022-08-17T10:27:42.913Z,96962.22
2022-08-17T10:30:13.957Z,96965.09
2022-08-17T10:32:46.758Z,96959.88
2022-08-17T10:35:34.057Z,96966.69
2022-08-17T10:38:26.600Z,96968.50
2022-08-17T10:40:58.471Z,96970.44
2022-08-17T10:43:39.686Z,96967.78
2022-08-17T10:46:31.094Z,96973.03
2022-08-17T10:49:34.042Z,96968.66
2022-08-17T10:52:03.195Z,96979.16
2022-08-17T10:54:42.987Z,96975.25
2022-08-17T10:57:38.125Z,96966.63
2022-08-17T11:00:16.434Z,96968.13
2022-08-17T11:02:49.873Z,96962.94
2022-08-17T11:05:45.217Z,96961.34
2022-08-17T11:08:39.203Z,96965.09
2022-08-17T11:11:21.087Z,96968.00
2022-08-17T11:13:53.504Z,96971.13
2022-08-17T11:16:45.722Z,96965.06
2022-08-17T11:19:26.438Z,96970.53
2022-08-17T11:22:19.643Z,96974.09
2022-08-17T11:24:48.181Z,96981.59
2022-08-17T11:27:24.849Z,96987.94
2022-08-17T11:30:01.850Z,96989.78
2022-08-17T11:32:38.511Z,96998.09
2022-08-17T11:35:29.702Z,96990.94
2022-08-17T11:38:10.849Z,96989.50
2022-08-17T11:40:56.469Z,96985.69
2022-08-17T11:43:50.727Z,96979.47
2022-08-17T11:46:25.548Z,96969.31
2022-08-17T11:49:18.474Z,96961.91
2022-08-17T11:52:10.071Z,96955.72
2022-08-17T11:54:46.662Z,96952.22
2022-08-17T11:58:06.893Z,96962.66
2022-08-17T12:00:58.161Z,96967.44
2022-08-17T12:03:55.928Z,96963.16
2022-08-17T12:07:00.065Z,96964.41
2022-08-17T12:09:31.197Z,96964.81
2022-08-17T12:12:14.821Z,96962.06
2022-08-17T12:15:08.805Z,96971.44
2022-08-17T12:17:52.057Z,96971.13
2022-08-17T12:20:24.555Z,96964.97
2022-08-17T12:22:56.525Z,96960.56
2022-08-17T12:25:27.227Z,96959.97
2022-08-17T12:28:05.308Z,96963.97
2022-08-17T12:30:33.846Z,96960.38
2022-08-17T12:33:01.886Z,96952.28
2022-08-17T12:35:35.327Z,96956.09
2022-08-17T12:38:03.735Z,96953.25
2022-08-17T12:40:32.813Z,96947.97
2022-08-17T12:43:01.676Z,96947.47
2022-08-17T12:45:30.567Z,96936.69
2022-08-17T12:48:02.833Z,96933.94
2022-08-17T12:50:32.493Z,96944.06
2022-08-17T12:53:02.476Z,96928.38
2022-08-17T12:55:32.588Z,96934.34
2022-08-17T12:58:02.282Z,96926.78
2022-08-17T13:00:31.758Z,96933.66
2022-08-17T13:03:02.327Z,96931.22
2022-08-17T13:05:36.002Z,96944.75
2022-08-17T13:08:06.104Z,96945.19
2022-08-17T13:10:35.258Z,96939.94
2022-08-17T13:13:06.430Z,96947.47
2022-08-17T13:15:44.769Z,96943.16
2022-08-17T13:18:34.975Z,96953.75
2022-08-17T13:21:04.296Z,96951.81
2022-08-17T13:23:32.566Z,96937.41
2022-08-17T13:26:03.808Z,96938.47
2022-08-17T13:28:36.339Z,96948.66
2022-08-17T13:31:26.320Z,96943.66
2022-08-17T13:34:12.827Z,96940.66
2022-08-17T13:36:42.329Z,96936.09
2022-08-17T13:39:15.961Z,96937.09
2022-08-17T13:41:44.186Z,96938.06
2022-08-17T13:44:31.423Z,96938.69
2022-08-17T13:46:59.640Z,96940.19
2022-08-17T13:49:48.490Z,96939.53
2022-08-17T13:52:40.405Z,96939.22
2022-08-17T13:55:10.030Z,96942.38
2022-08-17T13:57:37.972Z,96934.19
2022-08-17T14:00:12.065Z,96929.16
2022-08-17T14:02:39.921Z,96934.44
2022-08-17T14:05:08.282Z,96936.88
2022-08-17T14:07:41.870Z,96934.44
2022-08-17T14:10:13.698Z,96943.75
2022-08-17T14:12:43.561Z,96928.66
2022-08-17T14:15:12.389Z,96933.38
2022-08-17T14:17:40.382Z,96932.88
2022-08-17T14:20:10.799Z,96941.66
2022-08-17T14:22:42.450Z,96935.06
2022-08-17T14:25:11.957Z,96937.69
2022-08-17T14:27:52.132Z,96926.03
2022-08-17T14:30:22.028Z,96928.38
2022-08-17T14:32:51.995Z,96931.06
2022-08-17T14:35:22.029Z,96927.41
2022-08-17T14:37:51.534Z,96928.09
2022-08-17T14:40:22.750Z,96930.56
2022-08-17T14:42:53.113Z,96928.69
2022-08-17T14:45:32.003Z,96931.25
2022-08-17T14:48:01.355Z,96929.34
2022-08-17T14:50:29.292Z,96921.06
2022-08-17T14:53:01.442Z,96929.13
2022-08-17T14:55:31.284Z,96925.69
2022-08-17T14:57:59.447Z,96915.19
2022-08-17T15:00:28.765Z,96915.88
2022-08-17T15:02:58.777Z,96921.50
2022-08-17T15:05:31.640Z,96923.94
2022-08-17T15:08:01.608Z,96927.13
2022-08-17T15:10:29.691Z,96923.84
2022-08-17T15:12:58.201Z,96922.19
2022-08-17T15:15:26.400Z,96915.84
2022-08-17T15:17:55.201Z,96916.16
2022-08-17T15:20:25.455Z,96925.09
2022-08-17T15:22:55.665Z,96918.13
2022-08-17T15:25:26.769Z,96912.75
2022-08-17T15:27:56.098Z,96916.63
2022-08-17T15:30:24.325Z,96923.63
2022-08-17T15:32:54.946Z,96918.72
2022-08-17T15:35:28.360Z,96923.03
2022-08-17T15:37:58.173Z,96917.81
2022-08-17T15:40:28.002Z,96917.38
2022-08-17T15:42:57.769Z,96923.88
2022-08-17T15:45:28.362Z,96931.56
2022-08-17T15:47:56.311Z,96919.59
2022-08-17T15:50:24.343Z,96922.06
2022-08-17T15:52:59.220Z,96919.81
2022-08-17T15:55:30.264Z,96911.63
2022-08-17T15:57:58.729Z,96914.81
2022-08-17T16:00:28.511Z,96919.44
2022-08-17T16:03:45.182Z,96916.41
2022-08-17T16:05:45.092Z,96913.47
2022-08-17T16:08:20.053Z,96919.44
2022-08-17T16:10:50.363Z,96923.22
2022-08-17T16:13:20.011Z,96915.19
2022-08-17T16:15:56.560Z,96913.41
2022-08-17T16:18:26.517Z,96914.81
2022-08-17T16:20:55.148Z,96927.31
2022-08-17T16:23:23.234Z,96934.56
2022-08-17T16:25:54.258Z,96938.75
2022-08-17T16:28:30.841Z,96936.38
2022-08-17T16:31:08.062Z,96931.19
2022-08-17T16:33:37.438Z,96937.63
2022-08-17T16:36:05.833Z,96934.09
2022-08-17T16:38:34.277Z,96935.16
2022-08-17T16:41:03.694Z,96924.84
2022-08-17T16:43:32.742Z,96949.72
2022-08-17T16:46:02.810Z,96937.16
2022-08-17T16:48:31.057Z,96940.56
2022-08-17T16:51:03.150Z,96948.22
2022-08-17T16:53:32.529Z,96953.25
2022-08-17T16:56:03.104Z,96943.59
2022-08-17T16:58:35.888Z,96944.38
2022-08-17T17:01:05.602Z,96949.41
2022-08-17T17:03:33.518Z,96942.69
2022-08-17T17:06:07.366Z,96934.47
2022-08-17T17:08:39.512Z,96941.28
2022-08-17T17:11:13.985Z,96952.16
2022-08-17T17:13:45.610Z,96953.94
2022-08-17T17:16:19.479Z,96959.09
2022-08-17T17:18:56.515Z,96961.38
2022-08-17T17:21:26.447Z,96964.00
2022-08-17T17:23:56.891Z,96955.34
2022-08-17T17:26:33.324Z,96957.31
2022-08-17T17:29:24.578Z,96952.88
2022-08-17T17:31:58.351Z,96948.22
2022-08-17T17:34:26.326Z,96962.22
2022-08-17T17:36:57.362Z,96963.88
2022-08-17T17:39:36.504Z,96964.81
2022-08-17T17:42:10.157Z,96980.31
2022-08-17T17:44:41.414Z,96981.16
2022-08-17T17:47:09.949Z,96989.81
2022-08-17T17:49:40.241Z,97000.31
2022-08-17T17:52:15.581Z,97001.75
2022-08-17T17:54:55.206Z,97007.94
2022-08-17T17:57:26.330Z,97006.44
2022-08-17T17:59:59.414Z,97017.72
2022-08-17T18:02:53.817Z,97021.75
2022-08-17T18:05:34.230Z,97018.47
2022-08-17T18:08:10.653Z,97023.94
2022-08-17T18:10:43.150Z,97027.25
2022-08-17T18:13:20.020Z,97015.72
2022-08-17T18:15:53.060Z,97024.06
2022-08-17T18:18:40.785Z,97027.13
2022-08-17T18:21:15.927Z,97027.19
2022-08-17T18:23:57.030Z,97024.28
2022-08-17T18:26:46.616Z,97023.97
2022-08-17T18:29:26.617Z,97017.13
2022-08-17T18:32:27.523Z,97019.28
2022-08-17T18:34:57.532Z,97023.16
2022-08-17T18:37:45.349Z,97029.28
2022-08-17T18:40:28.602Z,97032.44
2022-08-17T18:43:25.600Z,97038.03
2022-08-17T18:45:54.548Z,97042.00
2022-08-17T18:48:26.662Z,97037.31
2022-08-17T18:50:55.637Z,97045.78
2022-08-17T18:53:33.537Z,97050.88
2022-08-17T18:56:22.520Z,97054.97
2022-08-17T18:59:00.007Z,97056.25
2022-08-17T19:01:46.962Z,97068.47
2022-08-17T19:04:34.492Z,97077.13
2022-08-17T19:07:09.175Z,97080.44
2022-08-17T19:09:39.624Z,97078.44
2022-08-17T19:12:09.550Z,97077.44
2022-08-17T19:14:38.080Z,97081.00
2022-08-17T19:17:07.399Z,97083.50
2022-08-17T19:19:39.314Z,97085.88
2022-08-17T19:22:14.574Z,97079.31
2022-08-17T19:25:03.726Z,97087.84
2022-08-17T19:27:41.788Z,97092.41
2022-08-17T19:30:15.012Z,97092.41
2022-08-17T19:32:43.036Z,97091.41
2022-08-17T19:35:17.342Z,97096.03
2022-08-17T19:37:51.724Z,97093.34
2022-08-17T19:40:51.249Z,97090.88
2022-08-17T19:43:17.649Z,97094.00
2022-08-17T19:45:54.227Z,97090.22
2022-08-17T19:48:26.317Z,97095.25
2022-08-17T19:51:01.552Z,97079.97
2022-08-17T19:54:01.798Z,97084.81
2022-08-17T19:56:32.744Z,97092.41
2022-08-17T19:59:08.264Z,97089.22
2022-08-17T20:01:41.605Z,97096.78
2022-08-17T20:04:12.513Z,97097.22
2022-08-17T20:06:44.229Z,97105.41
2022-08-17T20:09:16.359Z,97104.31
2022-08-17T20:11:46.968Z,97114.22
2022-08-17T20:14:16.144Z,97102.91
2022-08-17T20:16:44.734Z,97110.41
2022-08-17T20:19:20.505Z,97105.00
2022-08-17T20:21:53.726Z,97105.63
2022-08-17T20:24:29.760Z,97099.78
2022-08-17T20:27:01.514Z,97094.75
2022-08-17T20:29:39.836Z,97102.50
2022-08-17T20:32:25.267Z,97111.50
2022-08-17T20:35:04.364Z,97119.69
2022-08-17T20:37:34.306Z,97129.97
2022-08-17T20:40:23.565Z,97120.72
2022-08-17T20:42:51.995Z,97122.00
2022-08-17T20:45:58.199Z,97127.44
2022-08-17T20:48:38.090Z,97124.44
2022-08-17T20:51:26.016Z,97116.06
2022-08-17T20:54:28.166Z,97125.69
2022-08-17T20:56:57.992Z,97134.03
2022-08-17T21:00:13.744Z,97121.94
2022-08-17T21:02:44.551Z,97116.47
2022-08-17T21:05:30.673Z,97114.19
2022-08-17T21:08:01.139Z,97126.97
2022-08-17T21:10:39.455Z,97127.59
2022-08-17T21:13:38.540Z,97118.16
2022-08-17T21:16:11.496Z,97119.50
2022-08-17T21:18:41.676Z,97124.78
2022-08-17T21:21:26.281Z,97114.91
2022-08-17T21:24:06.154Z,97122.44
2022-08-17T21:26:50.652Z,97120.81
2022-08-17T21:29:31.827Z,97132.03
2022-08-17T21:32:23.766Z,97131.38
2022-08-17T21:35:24.530Z,97120.97
2022-08-17T21:37:54.184Z,97119.72
2022-08-17T21:40:25.335Z,97124.91
2022-08-17T21:42:56.175Z,97129.09
2022-08-17T21:45:27.305Z,97129.28
2022-08-17T21:48:09.336Z,97134.94
2022-08-17T21:50:37.681Z,97133.97
2022-08-17T21:53:06.256Z,97136.50
2022-08-17T21:55:34.364Z,97141.94
2022-08-17T21:58:14.125Z,97150.75
2022-08-17T22:00:44.465Z,97144.28
2022-08-17T22:03:25.937Z,97148.63
2022-08-17T22:05:53.798Z,97153.69
2022-08-17T22:08:23.151Z,97156.81
2022-08-17T22:10:51.599Z,97156.41
2022-08-17T22:13:24.408Z,97163.91
2022-08-17T22:16:28.060Z,97161.44
2022-08-17T22:18:57.773Z,97164.09
2022-08-17T22:21:25.932Z,97164.53
2022-08-17T22:24:04.289Z,97170.22
2022-08-17T22:27:00.831Z,97167.66
2022-08-17T22:29:57.548Z,97166.66
2022-08-17T22:32:34.501Z,97165.38
2022-08-17T22:35:34.535Z,97169.06
2022-08-17T22:38:27.774Z,97168.22
2022-08-17T22:40:57.491Z,97180.34
2022-08-17T22:43:28.536Z,97184.50
2022-08-17T22:45:58.962Z,97191.13
2022-08-17T22:48:27.777Z,97185.69
2022-08-17T22:51:04.845Z,97175.75
2022-08-17T22:54:04.503Z,97174.56
2022-08-17T22:56:49.971Z,97178.19
2022-08-17T22:59:35.047Z,97182.84
2022-08-17T23:02:24.944Z,97182.09
2022-08-17T23:04:54.585Z,97171.56
2022-08-17T23:07:23.016Z,97180.91
2022-08-17T23:09:52.386Z,97172.13
2022-08-17T23:12:24.428Z,97166.59
2022-08-17T23:14:56.853Z,97171.53
2022-08-17T23:17:27.597Z,97160.31
2022-08-17T23:19:57.212Z,97159.41
2022-08-17T23:22:25.339Z,97164.41
2022-08-17T23:24:53.348Z,97168.56
2022-08-17T23:27:22.187Z,97174.00
2022-08-17T23:29:50.559Z,97173.50
2022-08-17T23:32:18.565Z,97165.03
2022-08-17T23:34:49.547Z,97171.94
2022-08-17T23:37:18.291Z,97177.13
2022-08-17T23:39:46.394Z,97173.50
2022-08-17T23:42:16.322Z,97172.28
2022-08-17T23:44:44.794Z,97181.84
2022-08-17T23:47:13.103Z,97183.16
2022-08-17T23:49:42.125Z,97184.72
2022-08-17T23:52:12.696Z,97188.16
2022-08-17T23:54:44.680Z,97182.81
2022-08-17T23:57:15.410Z,97186.44
2022-08-17T23:59:43.920Z,97191.69
